KCVS/CVS METAR and TAF weather

Enter ICAO airport designator
Station Type Date Time Source
KCVS METAR 2018/07/21 12:58 UTC NOAA

KCVS 211258Z AUTO 32006KT 10SM CLR 23/08 A3018 RMK AO2 SLP147 T02270084 $


Station Type Date Time Source
KCVS Decoded METAR 2018/07/21 12:58 UTC NOAA

Cannon Air Force Base / Clovis, NM, United States (KCVS) 34-23N 103-19W
Jul 21, 2018 - 08:58 AM EDT / 2018.07.21 1258 UTC
Wind: from the NW (320 degrees) at 7 MPH (6 KT):0
Visibility: 10 mile(s):0
Sky conditions: clear
Temperature: 72.9 F (22.7 C)
Dew Point: 47.1 F (8.4 C)
Relative Humidity: 39%
Pressure (altimeter): 30.18 in. Hg (1022 hPa)
ob: KCVS 211258Z AUTO 32006KT 10SM CLR 23/08 A3018 RMK AO2 SLP147 T02270084
cycle: 13

Station Type Date Time Source
KCVS TAF 2018/07/21 10:21 UTC NOAA

TAF KCVS 211014Z 2110/2216 23009KT 9999 SCT350 QNH3012INS
BECMG 2117/2118 18012G20KT 9999 BKN350 QNH3007INS
BECMG 2123/2124 17009KT 9999 BKN350 QNH3007INS
BECMG 2204/2205 22009KT 9999 BKN350 QNH3009INS TX38/2123Z TN20/2112Z


Example: see airport list